sensor_id;sensor_type;location;lat;lon;timestamp;temperature;humidity
41922;DHT22;27609;51.002;5.354;2022-12-05T00:01:33;4.20;99.90
41922;DHT22;27609;51.002;5.354;2022-12-05T00:04:10;4.30;99.90
41922;DHT22;27609;51.002;5.354;2022-12-05T00:06:37;4.40;99.90
41922;DHT22;27609;51.002;5.354;2022-12-05T00:09:04;4.40;99.90
41922;DHT22;27609;51.002;5.354;2022-12-05T00:11:33;4.30;99.90
41922;DHT22;27609;51.002;5.354;2022-12-05T00:14:00;4.90;99.90
41922;DHT22;27609;51.002;5.354;2022-12-05T00:16:28;5.10;99.90
41922;DHT22;27609;51.002;5.354;2022-12-05T00:18:55;4.90;99.90
41922;DHT22;27609;51.002;5.354;2022-12-05T00:21:28;4.90;99.90
41922;DHT22;27609;51.002;5.354;2022-12-05T00:23:55;5.10;99.90
41922;DHT22;27609;51.002;5.354;2022-12-05T00:26:22;4.50;99.90
41922;DHT22;27609;51.002;5.354;2022-12-05T00:28:48;4.80;99.90
41922;DHT22;27609;51.002;5.354;2022-12-05T00:31:18;5.00;99.90
41922;DHT22;27609;51.002;5.354;2022-12-05T00:33:45;4.80;99.90
41922;DHT22;27609;51.002;5.354;2022-12-05T00:36:13;4.90;99.90
41922;DHT22;27609;51.002;5.354;2022-12-05T00:38:39;4.00;99.90
41922;DHT22;27609;51.002;5.354;2022-12-05T00:41:10;4.60;99.90
41922;DHT22;27609;51.002;5.354;2022-12-05T00:43:37;4.60;99.90
41922;DHT22;27609;51.002;5.354;2022-12-05T00:46:04;4.40;99.90
41922;DHT22;27609;51.002;5.354;2022-12-05T00:48:30;4.30;99.90
41922;DHT22;27609;51.002;5.354;2022-12-05T00:51:08;4.70;99.90
41922;DHT22;27609;51.002;5.354;2022-12-05T00:53:34;4.30;99.90
41922;DHT22;27609;51.002;5.354;2022-12-05T00:56:05;4.10;99.90
41922;DHT22;27609;51.002;5.354;2022-12-05T00:58:31;4.50;99.90
41922;DHT22;27609;51.002;5.354;2022-12-05T01:00:57;4.80;99.90
41922;DHT22;27609;51.002;5.354;2022-12-05T01:03:23;4.50;99.90
41922;DHT22;27609;51.002;5.354;2022-12-05T01:05:48;4.30;99.90
41922;DHT22;27609;51.002;5.354;2022-12-05T01:08:14;4.30;99.90
41922;DHT22;27609;51.002;5.354;2022-12-05T01:10:40;4.40;99.90
41922;DHT22;27609;51.002;5.354;2022-12-05T01:13:05;4.30;99.90
41922;DHT22;27609;51.002;5.354;2022-12-05T01:15:35;4.30;99.90
41922;DHT22;27609;51.002;5.354;2022-12-05T01:18:01;4.40;99.90
41922;DHT22;27609;51.002;5.354;2022-12-05T01:20:27;4.50;99.90
41922;DHT22;27609;51.002;5.354;2022-12-05T01:22:53;4.60;99.90
41922;DHT22;27609;51.002;5.354;2022-12-05T01:25:18;4.30;99.90
41922;DHT22;27609;51.002;5.354;2022-12-05T01:27:44;5.00;99.90
41922;DHT22;27609;51.002;5.354;2022-12-05T01:30:10;4.50;99.90
41922;DHT22;27609;51.002;5.354;2022-12-05T01:32:36;4.60;99.90
41922;DHT22;27609;51.002;5.354;2022-12-05T01:35:02;4.70;99.90
41922;DHT22;27609;51.002;5.354;2022-12-05T01:37:27;4.60;99.90
41922;DHT22;27609;51.002;5.354;2022-12-05T01:39:53;4.70;99.90
41922;DHT22;27609;51.002;5.354;2022-12-05T01:42:19;4.80;99.90
41922;DHT22;27609;51.002;5.354;2022-12-05T01:47:16;4.90;99.90
41922;DHT22;27609;51.002;5.354;2022-12-05T01:49:42;4.90;99.90
41922;DHT22;27609;51.002;5.354;2022-12-05T01:52:18;4.90;99.90
41922;DHT22;27609;51.002;5.354;2022-12-05T01:54:47;5.30;99.90
41922;DHT22;27609;51.002;5.354;2022-12-05T01:57:14;5.30;99.90
41922;DHT22;27609;51.002;5.354;2022-12-05T01:59:47;5.00;99.90
41922;DHT22;27609;51.002;5.354;2022-12-05T02:02:14;5.10;99.90
41922;DHT22;27609;51.002;5.354;2022-12-05T02:04:53;5.10;99.90
41922;DHT22;27609;51.002;5.354;2022-12-05T02:07:21;5.00;99.90
41922;DHT22;27609;51.002;5.354;2022-12-05T02:09:48;5.70;99.90
41922;DHT22;27609;51.002;5.354;2022-12-05T02:12:15;5.10;99.90
41922;DHT22;27609;51.002;5.354;2022-12-05T02:20:10;5.00;99.90
41922;DHT22;27609;51.002;5.354;2022-12-05T02:28:45;5.10;99.90
41922;DHT22;27609;51.002;5.354;2022-12-05T02:31:33;5.40;99.90
41922;DHT22;27609;51.002;5.354;2022-12-05T02:34:22;5.50;99.90
41922;DHT22;27609;51.002;5.354;2022-12-05T02:37:04;5.10;99.90
41922;DHT22;27609;51.002;5.354;2022-12-05T02:39:47;5.00;99.90
41922;DHT22;27609;51.002;5.354;2022-12-05T02:42:37;5.00;99.90
41922;DHT22;27609;51.002;5.354;2022-12-05T02:45:08;5.10;99.90
41922;DHT22;27609;51.002;5.354;2022-12-05T02:47:43;5.10;99.90
41922;DHT22;27609;51.002;5.354;2022-12-05T02:50:12;5.20;99.90
41922;DHT22;27609;51.002;5.354;2022-12-05T02:52:40;4.90;99.90
41922;DHT22;27609;51.002;5.354;2022-12-05T02:55:07;4.90;99.90
41922;DHT22;27609;51.002;5.354;2022-12-05T02:57:35;4.90;99.90
41922;DHT22;27609;51.002;5.354;2022-12-05T03:00:01;4.90;99.90
41922;DHT22;27609;51.002;5.354;2022-12-05T03:02:32;4.90;99.90
41922;DHT22;27609;51.002;5.354;2022-12-05T03:07:39;5.00;99.90
41922;DHT22;27609;51.002;5.354;2022-12-05T03:10:07;5.00;99.90
41922;DHT22;27609;51.002;5.354;2022-12-05T03:12:36;5.00;99.90
41922;DHT22;27609;51.002;5.354;2022-12-05T03:15:14;4.90;99.90
41922;DHT22;27609;51.002;5.354;2022-12-05T03:17:56;4.70;99.90
41922;DHT22;27609;51.002;5.354;2022-12-05T03:20:37;4.70;99.90
41922;DHT22;27609;51.002;5.354;2022-12-05T03:23:22;4.70;99.90
41922;DHT22;27609;51.002;5.354;2022-12-05T03:26:09;4.60;99.90
41922;DHT22;27609;51.002;5.354;2022-12-05T03:28:47;4.60;99.90
41922;DHT22;27609;51.002;5.354;2022-12-05T03:31:20;4.70;99.90
41922;DHT22;27609;51.002;5.354;2022-12-05T03:33:49;4.70;99.90
41922;DHT22;27609;51.002;5.354;2022-12-05T03:36:31;4.80;99.90
41922;DHT22;27609;51.002;5.354;2022-12-05T03:39:18;4.60;99.90
41922;DHT22;27609;51.002;5.354;2022-12-05T03:42:08;4.80;99.90
41922;DHT22;27609;51.002;5.354;2022-12-05T03:44:51;5.40;99.90
41922;DHT22;27609;51.002;5.354;2022-12-05T03:47:24;4.90;99.90
41922;DHT22;27609;51.002;5.354;2022-12-05T03:49:54;4.80;99.90
41922;DHT22;27609;51.002;5.354;2022-12-05T03:52:43;4.70;99.90
41922;DHT22;27609;51.002;5.354;2022-12-05T03:55:12;4.60;99.90
41922;DHT22;27609;51.002;5.354;2022-12-05T03:57:57;4.80;99.90
41922;DHT22;27609;51.002;5.354;2022-12-05T04:00:24;4.60;99.90
41922;DHT22;27609;51.002;5.354;2022-12-05T04:03:09;5.20;99.90
41922;DHT22;27609;51.002;5.354;2022-12-05T04:05:42;4.70;99.90
41922;DHT22;27609;51.002;5.354;2022-12-05T04:08:27;4.70;99.90
41922;DHT22;27609;51.002;5.354;2022-12-05T04:11:06;4.70;99.90
41922;DHT22;27609;51.002;5.354;2022-12-05T04:13:54;4.70;99.90
41922;DHT22;27609;51.002;5.354;2022-12-05T04:16:32;5.10;99.90
41922;DHT22;27609;51.002;5.354;2022-12-05T04:22:20;4.50;99.90
41922;DHT22;27609;51.002;5.354;2022-12-05T04:24:47;4.60;99.90
41922;DHT22;27609;51.002;5.354;2022-12-05T04:27:39;4.60;99.90
41922;DHT22;27609;51.002;5.354;2022-12-05T04:30:08;4.50;99.90
41922;DHT22;27609;51.002;5.354;2022-12-05T04:32:48;4.50;99.90
41922;DHT22;27609;51.002;5.354;2022-12-05T04:35:26;4.40;99.90
41922;DHT22;27609;51.002;5.354;2022-12-05T04:37:59;4.40;99.90
41922;DHT22;27609;51.002;5.354;2022-12-05T04:40:53;4.50;99.90
41922;DHT22;27609;51.002;5.354;2022-12-05T04:43:21;5.10;99.90
41922;DHT22;27609;51.002;5.354;2022-12-05T04:45:50;4.60;99.90
41922;DHT22;27609;51.002;5.354;2022-12-05T04:48:17;4.60;99.90
41922;DHT22;27609;51.002;5.354;2022-12-05T04:50:45;4.70;99.90
41922;DHT22;27609;51.002;5.354;2022-12-05T04:53:13;4.30;99.90
41922;DHT22;27609;51.002;5.354;2022-12-05T04:55:45;4.40;99.90
41922;DHT22;27609;51.002;5.354;2022-12-05T04:58:18;4.90;99.90
41922;DHT22;27609;51.002;5.354;2022-12-05T05:06:10;4.40;99.90
41922;DHT22;27609;51.002;5.354;2022-12-05T05:08:36;4.40;99.90
41922;DHT22;27609;51.002;5.354;2022-12-05T05:11:20;4.80;99.90
41922;DHT22;27609;51.002;5.354;2022-12-05T05:13:47;4.60;99.90
41922;DHT22;27609;51.002;5.354;2022-12-05T05:16:23;4.50;99.90
41922;DHT22;27609;51.002;5.354;2022-12-05T05:18:49;4.60;99.90
41922;DHT22;27609;51.002;5.354;2022-12-05T05:21:30;4.80;99.90
41922;DHT22;27609;51.002;5.354;2022-12-05T05:23:56;4.70;99.90
41922;DHT22;27609;51.002;5.354;2022-12-05T05:26:23;4.90;99.90
41922;DHT22;27609;51.002;5.354;2022-12-05T05:28:50;4.40;99.90
41922;DHT22;27609;51.002;5.354;2022-12-05T05:31:17;4.40;99.90
41922;DHT22;27609;51.002;5.354;2022-12-05T05:33:43;4.20;99.90
41922;DHT22;27609;51.002;5.354;2022-12-05T05:36:11;4.40;99.90
41922;DHT22;27609;51.002;5.354;2022-12-05T05:38:41;4.60;99.90
41922;DHT22;27609;51.002;5.354;2022-12-05T05:41:19;4.50;99.90
41922;DHT22;27609;51.002;5.354;2022-12-05T05:43:46;4.50;99.90
41922;DHT22;27609;51.002;5.354;2022-12-05T05:46:13;4.70;99.90
41922;DHT22;27609;51.002;5.354;2022-12-05T05:48:39;4.60;99.90
41922;DHT22;27609;51.002;5.354;2022-12-05T05:51:06;4.90;99.90
41922;DHT22;27609;51.002;5.354;2022-12-05T05:53:33;4.80;99.90
41922;DHT22;27609;51.002;5.354;2022-12-05T05:56:03;4.70;99.90
41922;DHT22;27609;51.002;5.354;2022-12-05T05:58:29;4.70;99.90
41922;DHT22;27609;51.002;5.354;2022-12-05T06:01:00;4.80;99.90
41922;DHT22;27609;51.002;5.354;2022-12-05T06:03:26;4.60;99.90
41922;DHT22;27609;51.002;5.354;2022-12-05T06:05:59;4.60;99.90
41922;DHT22;27609;51.002;5.354;2022-12-05T06:08:28;4.60;99.90
41922;DHT22;27609;51.002;5.354;2022-12-05T06:10:54;4.80;99.90
41922;DHT22;27609;51.002;5.354;2022-12-05T06:13:19;4.90;99.90
41922;DHT22;27609;51.002;5.354;2022-12-05T06:15:45;4.70;99.90
41922;DHT22;27609;51.002;5.354;2022-12-05T06:18:11;4.90;99.90
41922;DHT22;27609;51.002;5.354;2022-12-05T06:20:36;4.80;99.90
41922;DHT22;27609;51.002;5.354;2022-12-05T06:23:02;4.80;99.90
41922;DHT22;27609;51.002;5.354;2022-12-05T06:25:27;4.70;99.90
41922;DHT22;27609;51.002;5.354;2022-12-05T06:27:53;4.70;99.90
41922;DHT22;27609;51.002;5.354;2022-12-05T06:30:19;4.70;99.90
41922;DHT22;27609;51.002;5.354;2022-12-05T06:32:44;4.80;99.90
41922;DHT22;27609;51.002;5.354;2022-12-05T06:35:10;4.70;99.90
41922;DHT22;27609;51.002;5.354;2022-12-05T06:37:41;4.80;99.90
41922;DHT22;27609;51.002;5.354;2022-12-05T06:40:07;4.70;99.90
41922;DHT22;27609;51.002;5.354;2022-12-05T06:42:33;4.50;99.90
41922;DHT22;27609;51.002;5.354;2022-12-05T06:44:58;4.70;99.90
41922;DHT22;27609;51.002;5.354;2022-12-05T06:47:24;4.80;99.90
41922;DHT22;27609;51.002;5.354;2022-12-05T06:49:50;4.80;99.90
41922;DHT22;27609;51.002;5.354;2022-12-05T06:52:15;4.60;99.90
41922;DHT22;27609;51.002;5.354;2022-12-05T06:54:41;4.60;99.90
41922;DHT22;27609;51.002;5.354;2022-12-05T06:57:06;4.70;99.90
41922;DHT22;27609;51.002;5.354;2022-12-05T06:59:32;4.70;99.90
41922;DHT22;27609;51.002;5.354;2022-12-05T07:01:58;4.50;99.90
41922;DHT22;27609;51.002;5.354;2022-12-05T07:04:24;4.60;99.90
41922;DHT22;27609;51.002;5.354;2022-12-05T07:06:52;4.70;99.90
41922;DHT22;27609;51.002;5.354;2022-12-05T07:09:20;4.60;99.90
41922;DHT22;27609;51.002;5.354;2022-12-05T07:11:48;4.50;99.90
41922;DHT22;27609;51.002;5.354;2022-12-05T07:14:13;4.50;99.90
41922;DHT22;27609;51.002;5.354;2022-12-05T07:16:39;4.40;99.90
41922;DHT22;27609;51.002;5.354;2022-12-05T07:19:05;4.50;99.90
41922;DHT22;27609;51.002;5.354;2022-12-05T07:21:30;4.70;99.90
41922;DHT22;27609;51.002;5.354;2022-12-05T07:23:56;4.40;99.90
41922;DHT22;27609;51.002;5.354;2022-12-05T07:26:23;4.40;99.90
41922;DHT22;27609;51.002;5.354;2022-12-05T07:28:49;4.50;99.90
41922;DHT22;27609;51.002;5.354;2022-12-05T07:31:18;4.60;99.90
41922;DHT22;27609;51.002;5.354;2022-12-05T07:33:44;4.60;99.90
41922;DHT22;27609;51.002;5.354;2022-12-05T07:36:12;4.50;99.90
41922;DHT22;27609;51.002;5.354;2022-12-05T07:38:39;4.60;99.90
41922;DHT22;27609;51.002;5.354;2022-12-05T07:41:11;4.60;99.90
41922;DHT22;27609;51.002;5.354;2022-12-05T07:43:38;4.70;99.90
41922;DHT22;27609;51.002;5.354;2022-12-05T07:46:06;4.80;99.90
41922;DHT22;27609;51.002;5.354;2022-12-05T07:48:32;4.60;99.90
41922;DHT22;27609;51.002;5.354;2022-12-05T07:51:00;4.30;99.90
41922;DHT22;27609;51.002;5.354;2022-12-05T07:53:28;4.10;99.90
41922;DHT22;27609;51.002;5.354;2022-12-05T07:55:53;4.40;99.90
41922;DHT22;27609;51.002;5.354;2022-12-05T07:58:19;4.40;99.90
41922;DHT22;27609;51.002;5.354;2022-12-05T08:00:45;4.10;99.90
41922;DHT22;27609;51.002;5.354;2022-12-05T08:03:10;3.80;99.90
41922;DHT22;27609;51.002;5.354;2022-12-05T08:05:36;3.90;99.90
41922;DHT22;27609;51.002;5.354;2022-12-05T08:08:02;3.90;99.90
41922;DHT22;27609;51.002;5.354;2022-12-05T08:10:28;3.60;99.90
41922;DHT22;27609;51.002;5.354;2022-12-05T08:12:54;3.70;99.90
41922;DHT22;27609;51.002;5.354;2022-12-05T08:15:19;3.70;99.90
41922;DHT22;27609;51.002;5.354;2022-12-05T08:17:45;3.70;99.90
41922;DHT22;27609;51.002;5.354;2022-12-05T08:20:11;3.60;99.90
41922;DHT22;27609;51.002;5.354;2022-12-05T08:22:37;3.70;99.90
41922;DHT22;27609;51.002;5.354;2022-12-05T08:25:02;3.70;99.90
41922;DHT22;27609;51.002;5.354;2022-12-05T08:27:28;3.80;99.90
41922;DHT22;27609;51.002;5.354;2022-12-05T08:29:54;3.90;99.90
41922;DHT22;27609;51.002;5.354;2022-12-05T08:32:19;4.10;99.90
41922;DHT22;27609;51.002;5.354;2022-12-05T08:34:45;4.10;99.90
41922;DHT22;27609;51.002;5.354;2022-12-05T08:37:11;4.10;99.90
41922;DHT22;27609;51.002;5.354;2022-12-05T08:39:36;4.00;99.90
41922;DHT22;27609;51.002;5.354;2022-12-05T08:42:02;4.10;99.90
41922;DHT22;27609;51.002;5.354;2022-12-05T08:44:28;4.20;99.90
41922;DHT22;27609;51.002;5.354;2022-12-05T08:46:53;4.70;99.90
41922;DHT22;27609;51.002;5.354;2022-12-05T08:49:19;4.50;99.90
41922;DHT22;27609;51.002;5.354;2022-12-05T08:51:45;4.90;99.90
41922;DHT22;27609;51.002;5.354;2022-12-05T08:54:11;4.80;99.90
41922;DHT22;27609;51.002;5.354;2022-12-05T08:56:36;4.90;99.90
41922;DHT22;27609;51.002;5.354;2022-12-05T08:59:03;5.20;99.90
41922;DHT22;27609;51.002;5.354;2022-12-05T09:01:29;5.00;99.90
41922;DHT22;27609;51.002;5.354;2022-12-05T09:04:00;4.70;99.90
41922;DHT22;27609;51.002;5.354;2022-12-05T09:06:26;4.80;99.90
41922;DHT22;27609;51.002;5.354;2022-12-05T09:08:54;4.80;99.90
41922;DHT22;27609;51.002;5.354;2022-12-05T09:11:23;4.90;99.90
41922;DHT22;27609;51.002;5.354;2022-12-05T09:13:50;4.40;99.90
41922;DHT22;27609;51.002;5.354;2022-12-05T09:16:20;4.70;99.90
41922;DHT22;27609;51.002;5.354;2022-12-05T09:18:47;4.30;99.90
41922;DHT22;27609;51.002;5.354;2022-12-05T09:21:18;5.00;99.90
41922;DHT22;27609;51.002;5.354;2022-12-05T09:23:44;4.80;99.90
41922;DHT22;27609;51.002;5.354;2022-12-05T09:26:13;4.50;99.90
41922;DHT22;27609;51.002;5.354;2022-12-05T09:28:39;5.00;99.90
41922;DHT22;27609;51.002;5.354;2022-12-05T09:31:11;4.80;99.90
41922;DHT22;27609;51.002;5.354;2022-12-05T09:33:37;4.70;99.90
41922;DHT22;27609;51.002;5.354;2022-12-05T09:36:08;4.90;99.90
41922;DHT22;27609;51.002;5.354;2022-12-05T09:38:35;4.90;99.90
41922;DHT22;27609;51.002;5.354;2022-12-05T09:49:15;4.80;99.90
41922;DHT22;27609;51.002;5.354;2022-12-05T09:51:44;4.90;99.90
41922;DHT22;27609;51.002;5.354;2022-12-05T09:54:12;4.80;99.90
41922;DHT22;27609;51.002;5.354;2022-12-05T09:56:39;5.00;99.90
41922;DHT22;27609;51.002;5.354;2022-12-05T09:59:12;5.20;99.90
41922;DHT22;27609;51.002;5.354;2022-12-05T10:02:00;5.50;99.90
41922;DHT22;27609;51.002;5.354;2022-12-05T10:07:20;5.20;99.90
41922;DHT22;27609;51.002;5.354;2022-12-05T10:15:56;5.00;99.90
41922;DHT22;27609;51.002;5.354;2022-12-05T10:18:34;5.00;99.90
41922;DHT22;27609;51.002;5.354;2022-12-05T10:26:20;4.90;99.90
41922;DHT22;27609;51.002;5.354;2022-12-05T10:31:30;4.80;99.90
41922;DHT22;27609;51.002;5.354;2022-12-05T10:34:15;4.80;99.90
41922;DHT22;27609;51.002;5.354;2022-12-05T10:39:35;4.90;99.90
41922;DHT22;27609;51.002;5.354;2022-12-05T10:42:02;4.90;99.90
41922;DHT22;27609;51.002;5.354;2022-12-05T10:44:28;4.90;99.90
41922;DHT22;27609;51.002;5.354;2022-12-05T10:46:53;5.40;99.90
41922;DHT22;27609;51.002;5.354;2022-12-05T10:49:19;5.00;99.90
41922;DHT22;27609;51.002;5.354;2022-12-05T10:51:45;5.20;99.90
41922;DHT22;27609;51.002;5.354;2022-12-05T10:54:23;5.40;99.90
41922;DHT22;27609;51.002;5.354;2022-12-05T10:56:51;5.00;99.90
41922;DHT22;27609;51.002;5.354;2022-12-05T10:59:20;5.00;99.90
41922;DHT22;27609;51.002;5.354;2022-12-05T11:01:55;5.10;99.90
41922;DHT22;27609;51.002;5.354;2022-12-05T11:04:39;4.90;99.90
41922;DHT22;27609;51.002;5.354;2022-12-05T11:07:05;4.80;99.90
41922;DHT22;27609;51.002;5.354;2022-12-05T11:09:33;5.00;99.90
41922;DHT22;27609;51.002;5.354;2022-12-05T11:14:31;5.00;99.90
41922;DHT22;27609;51.002;5.354;2022-12-05T11:17:00;5.10;99.90
41922;DHT22;27609;51.002;5.354;2022-12-05T11:19:30;4.90;99.90
41922;DHT22;27609;51.002;5.354;2022-12-05T11:21:57;4.90;99.90
41922;DHT22;27609;51.002;5.354;2022-12-05T11:24:34;5.00;99.90
41922;DHT22;27609;51.002;5.354;2022-12-05T11:27:19;5.20;99.90
41922;DHT22;27609;51.002;5.354;2022-12-05T11:32:38;5.00;99.90
41922;DHT22;27609;51.002;5.354;2022-12-05T11:35:40;5.00;99.90
41922;DHT22;27609;51.002;5.354;2022-12-05T11:38:02;5.10;99.90
41922;DHT22;27609;51.002;5.354;2022-12-05T11:44:06;5.00;99.90
41922;DHT22;27609;51.002;5.354;2022-12-05T11:49:56;5.10;99.90
41922;DHT22;27609;51.002;5.354;2022-12-05T11:52:33;5.10;99.90
41922;DHT22;27609;51.002;5.354;2022-12-05T11:55:13;5.20;99.90
41922;DHT22;27609;51.002;5.354;2022-12-05T12:00:59;4.90;99.90
41922;DHT22;27609;51.002;5.354;2022-12-05T12:06:41;5.10;99.90
41922;DHT22;27609;51.002;5.354;2022-12-05T12:09:41;5.20;99.90
41922;DHT22;27609;51.002;5.354;2022-12-05T12:17:41;5.30;99.90
41922;DHT22;27609;51.002;5.354;2022-12-05T12:22:53;5.30;99.90
41922;DHT22;27609;51.002;5.354;2022-12-05T12:33:48;5.70;99.90
41922;DHT22;27609;51.002;5.354;2022-12-05T12:41:54;5.10;99.90
41922;DHT22;27609;51.002;5.354;2022-12-05T12:50:42;5.50;99.90
41922;DHT22;27609;51.002;5.354;2022-12-05T12:59:03;5.60;99.90
41922;DHT22;27609;51.002;5.354;2022-12-05T13:04:44;5.80;99.90
41922;DHT22;27609;51.002;5.354;2022-12-05T13:07:38;6.50;99.90
41922;DHT22;27609;51.002;5.354;2022-12-05T13:10:10;5.70;99.90
41922;DHT22;27609;51.002;5.354;2022-12-05T13:12:40;5.70;99.90
41922;DHT22;27609;51.002;5.354;2022-12-05T13:15:15;5.50;99.90
41922;DHT22;27609;51.002;5.354;2022-12-05T13:17:45;6.00;99.90
41922;DHT22;27609;51.002;5.354;2022-12-05T13:20:16;5.70;99.90
41922;DHT22;27609;51.002;5.354;2022-12-05T13:22:43;5.60;99.90
41922;DHT22;27609;51.002;5.354;2022-12-05T13:25:14;5.80;99.90
41922;DHT22;27609;51.002;5.354;2022-12-05T13:27:59;5.80;99.90
41922;DHT22;27609;51.002;5.354;2022-12-05T13:30:26;5.60;99.90
41922;DHT22;27609;51.002;5.354;2022-12-05T13:33:05;6.00;99.90
41922;DHT22;27609;51.002;5.354;2022-12-05T13:35:37;5.50;99.90
41922;DHT22;27609;51.002;5.354;2022-12-05T13:41:10;5.30;99.90
41922;DHT22;27609;51.002;5.354;2022-12-05T13:43:55;5.00;99.90
41922;DHT22;27609;51.002;5.354;2022-12-05T13:46:29;4.80;99.90
41922;DHT22;27609;51.002;5.354;2022-12-05T13:49:02;5.00;99.90
41922;DHT22;27609;51.002;5.354;2022-12-05T13:51:30;4.80;99.90
41922;DHT22;27609;51.002;5.354;2022-12-05T13:54:02;5.00;99.90
41922;DHT22;27609;51.002;5.354;2022-12-05T13:56:57;5.40;99.90
41922;DHT22;27609;51.002;5.354;2022-12-05T14:05:35;5.10;99.90
41922;DHT22;27609;51.002;5.354;2022-12-05T14:15:49;5.20;99.90
41922;DHT22;27609;51.002;5.354;2022-12-05T14:24:30;4.50;99.90
41922;DHT22;27609;51.002;5.354;2022-12-05T14:30:24;3.90;99.90
41922;DHT22;27609;51.002;5.354;2022-12-05T14:32:54;3.80;99.90
41922;DHT22;27609;51.002;5.354;2022-12-05T14:35:29;3.70;99.90
41922;DHT22;27609;51.002;5.354;2022-12-05T14:37:56;3.60;99.90
41922;DHT22;27609;51.002;5.354;2022-12-05T14:45:43;4.00;99.90
41922;DHT22;27609;51.002;5.354;2022-12-05T14:48:36;4.30;99.90
41922;DHT22;27609;51.002;5.354;2022-12-05T14:54:30;4.40;99.90
41922;DHT22;27609;51.002;5.354;2022-12-05T14:57:12;4.50;99.90
41922;DHT22;27609;51.002;5.354;2022-12-05T14:59:59;4.60;99.90
41922;DHT22;27609;51.002;5.354;2022-12-05T15:02:29;4.70;99.90
41922;DHT22;27609;51.002;5.354;2022-12-05T15:05:43;4.60;99.90
41922;DHT22;27609;51.002;5.354;2022-12-05T15:07:51;4.30;99.90
41922;DHT22;27609;51.002;5.354;2022-12-05T15:12:48;4.00;99.90
41922;DHT22;27609;51.002;5.354;2022-12-05T15:21:06;3.60;99.90
41922;DHT22;27609;51.002;5.354;2022-12-05T15:26:40;3.60;99.90
41922;DHT22;27609;51.002;5.354;2022-12-05T15:34:47;3.50;99.90
41922;DHT22;27609;51.002;5.354;2022-12-05T15:37:20;4.20;99.90
41922;DHT22;27609;51.002;5.354;2022-12-05T15:40:00;3.60;99.90
41922;DHT22;27609;51.002;5.354;2022-12-05T15:42:40;3.80;99.90
41922;DHT22;27609;51.002;5.354;2022-12-05T15:48:09;4.00;99.90
41922;DHT22;27609;51.002;5.354;2022-12-05T15:50:42;3.60;99.90
41922;DHT22;27609;51.002;5.354;2022-12-05T15:58:35;3.60;99.90
41922;DHT22;27609;51.002;5.354;2022-12-05T16:06:17;3.60;99.90
41922;DHT22;27609;51.002;5.354;2022-12-05T16:08:45;3.60;99.90
41922;DHT22;27609;51.002;5.354;2022-12-05T16:11:13;3.90;99.90
41922;DHT22;27609;51.002;5.354;2022-12-05T16:13:43;3.60;99.90
41922;DHT22;27609;51.002;5.354;2022-12-05T16:16:16;4.10;99.90
41922;DHT22;27609;51.002;5.354;2022-12-05T16:19:02;3.50;99.90
41922;DHT22;27609;51.002;5.354;2022-12-05T16:21:45;3.50;99.90
41922;DHT22;27609;51.002;5.354;2022-12-05T16:24:17;3.60;99.90
41922;DHT22;27609;51.002;5.354;2022-12-05T16:27:02;3.60;99.90
41922;DHT22;27609;51.002;5.354;2022-12-05T16:29:30;3.70;99.90
41922;DHT22;27609;51.002;5.354;2022-12-05T16:31:58;3.60;99.90
41922;DHT22;27609;51.002;5.354;2022-12-05T16:34:26;3.50;99.90
41922;DHT22;27609;51.002;5.354;2022-12-05T16:36:53;3.60;99.90
41922;DHT22;27609;51.002;5.354;2022-12-05T16:39:20;3.60;99.90
41922;DHT22;27609;51.002;5.354;2022-12-05T16:41:47;4.40;99.90
41922;DHT22;27609;51.002;5.354;2022-12-05T16:46:53;3.80;99.90
41922;DHT22;27609;51.002;5.354;2022-12-05T16:49:33;4.00;99.90
41922;DHT22;27609;51.002;5.354;2022-12-05T16:54:26;4.00;99.90
41922;DHT22;27609;51.002;5.354;2022-12-05T16:56:52;3.60;99.90
41922;DHT22;27609;51.002;5.354;2022-12-05T16:59:24;4.10;99.90
41922;DHT22;27609;51.002;5.354;2022-12-05T17:01:51;3.80;99.90
41922;DHT22;27609;51.002;5.354;2022-12-05T17:04:16;3.40;99.90
41922;DHT22;27609;51.002;5.354;2022-12-05T17:06:42;3.30;99.90
41922;DHT22;27609;51.002;5.354;2022-12-05T17:09:08;3.30;99.90
41922;DHT22;27609;51.002;5.354;2022-12-05T17:11:35;3.70;99.90
41922;DHT22;27609;51.002;5.354;2022-12-05T17:14:03;3.80;99.90
41922;DHT22;27609;51.002;5.354;2022-12-05T17:16:29;3.20;99.90
41922;DHT22;27609;51.002;5.354;2022-12-05T17:18:55;3.50;99.90
41922;DHT22;27609;51.002;5.354;2022-12-05T17:21:29;3.20;99.90
41922;DHT22;27609;51.002;5.354;2022-12-05T17:23:56;3.50;99.90
41922;DHT22;27609;51.002;5.354;2022-12-05T17:26:22;3.60;99.90
41922;DHT22;27609;51.002;5.354;2022-12-05T17:28:48;3.90;99.90
41922;DHT22;27609;51.002;5.354;2022-12-05T17:31:16;3.50;99.90
41922;DHT22;27609;51.002;5.354;2022-12-05T17:33:44;3.70;99.90
41922;DHT22;27609;51.002;5.354;2022-12-05T17:36:10;3.40;99.90
41922;DHT22;27609;51.002;5.354;2022-12-05T17:38:36;3.40;99.90
41922;DHT22;27609;51.002;5.354;2022-12-05T17:41:02;3.50;99.90
41922;DHT22;27609;51.002;5.354;2022-12-05T17:43:28;3.50;99.90
41922;DHT22;27609;51.002;5.354;2022-12-05T17:45:53;3.50;99.90
41922;DHT22;27609;51.002;5.354;2022-12-05T17:48:19;3.90;99.90
41922;DHT22;27609;51.002;5.354;2022-12-05T17:50:47;4.10;99.90
41922;DHT22;27609;51.002;5.354;2022-12-05T17:53:15;3.50;99.90
41922;DHT22;27609;51.002;5.354;2022-12-05T17:55:42;3.40;99.90
41922;DHT22;27609;51.002;5.354;2022-12-05T17:58:08;3.50;99.90
41922;DHT22;27609;51.002;5.354;2022-12-05T18:00:35;3.40;99.90
41922;DHT22;27609;51.002;5.354;2022-12-05T18:03:01;3.60;99.90
41922;DHT22;27609;51.002;5.354;2022-12-05T18:05:26;3.40;99.90
41922;DHT22;27609;51.002;5.354;2022-12-05T18:07:52;3.30;99.90
41922;DHT22;27609;51.002;5.354;2022-12-05T18:10:19;3.60;99.90
41922;DHT22;27609;51.002;5.354;2022-12-05T18:12:46;3.70;99.90
41922;DHT22;27609;51.002;5.354;2022-12-05T18:15:13;4.00;99.90
41922;DHT22;27609;51.002;5.354;2022-12-05T18:17:39;3.60;99.90
41922;DHT22;27609;51.002;5.354;2022-12-05T18:20:07;3.50;99.90
41922;DHT22;27609;51.002;5.354;2022-12-05T18:22:34;3.50;99.90
41922;DHT22;27609;51.002;5.354;2022-12-05T18:25:00;3.50;99.90
41922;DHT22;27609;51.002;5.354;2022-12-05T18:27:28;3.70;99.90
41922;DHT22;27609;51.002;5.354;2022-12-05T18:29:54;3.70;99.90
41922;DHT22;27609;51.002;5.354;2022-12-05T18:32:20;3.60;99.90
41922;DHT22;27609;51.002;5.354;2022-12-05T18:34:46;3.60;99.90
41922;DHT22;27609;51.002;5.354;2022-12-05T18:37:12;3.70;99.90
41922;DHT22;27609;51.002;5.354;2022-12-05T18:39:38;3.70;99.90
41922;DHT22;27609;51.002;5.354;2022-12-05T18:42:04;3.70;99.90
41922;DHT22;27609;51.002;5.354;2022-12-05T18:44:31;3.80;99.90
41922;DHT22;27609;51.002;5.354;2022-12-05T18:46:56;3.70;99.90
41922;DHT22;27609;51.002;5.354;2022-12-05T18:49:22;3.70;99.90
41922;DHT22;27609;51.002;5.354;2022-12-05T18:51:48;3.70;99.90
41922;DHT22;27609;51.002;5.354;2022-12-05T18:54:14;3.70;99.90
41922;DHT22;27609;51.002;5.354;2022-12-05T18:56:39;3.60;99.90
41922;DHT22;27609;51.002;5.354;2022-12-05T18:59:07;3.50;99.90
41922;DHT22;27609;51.002;5.354;2022-12-05T19:01:37;3.50;99.90
41922;DHT22;27609;51.002;5.354;2022-12-05T19:04:05;3.50;99.90